Al Udeid, Qatar

5:04 AM AST on September 05, 2015 (GMT +0300)
Al Udeid | | Change Station
CLOSE
Current Station
Airport
Location: Al Udeid,
Elevation: 138 ft
Nearby Weather Stations

Elev 138 ft 25.20 °N, 51.32 °E | Updated 6 minutes ago

Haze
Haze
93 °F
Feels Like 107 °F
N
5
Wind Variable Wind from ESE

Today
High -- | Low -- °F
--% Chance of Precip.
Yesterday
High -- | Low -- °F
Precip. -- in
5:16 AM 5:50 PM
Waning Gibbous, 54% visible
Pressure 29.71 in
Visibility 3.7 miles
Clouds Clear
Heat Index 107 °F
Dew Point 77 °F
Humidity 60%
Rainfall 0.00 in
Snow Depth Not available.
UV 0 out of 12
Pollen Not available.
Air Quality Not available.
Flu Activity Not available.
METAR KQIR 050158Z 11004KT 6000 HZ CLR 34/25 A2971 RMK AO2A SLP061 T03380251
Pressure 29.71 in
Visibility 3.7 miles
Clouds Clear
Heat Index 107 °F
Dew Point 77 °F
Humidity 60%
Rainfall 0.00 in
Snow Depth Not available.
UV 0 out of 12
Pollen Not available.
Air Quality Not available.
Flu Activity Not available.
METAR KQIR 050158Z 11004KT 6000 HZ CLR 34/25 A2971 RMK AO2A SLP061 T03380251

10-Day Weather Forecast

×

Almanac

Astronomy

Sep. 05, 2015 Rise Set
Actual Time
Civil Twilight
Nautical Twilight
Astronomical Twilight
Moon
Length of Visible Light
Length of Day
Tomorrow will be .
, % of the Moon is Illuminated

Today's Extremes

Country Highs Country Lows

Community

WunderPhotos

Upload Photos

1,852,382 photos uploaded!

WunderBlogs® & News

Nearby

Air Quality

  Air Quality AQ Index Pollutant
Not available.

Snow Depth

Station Depth Elevation

Earthquake Activity

City Distance Mag. Time & Date
Minimum magnitude displayed is 2.5.

Coastal Water Temperatures

Place Temperature

Stations

Nearby Weather Stations

Station Location Temp. Windchill Dew Point Humidity Wind Precip. Elev Updated Type